sensor_id;sensor_type;location;lat;lon;timestamp;temperature;humidity
11152;DHT22;5630;49.342;10.802;2023-12-20T00:02:16;5.60;99.90
11152;DHT22;5630;49.342;10.802;2023-12-20T00:04:42;5.70;99.90
11152;DHT22;5630;49.342;10.802;2023-12-20T00:07:07;5.70;99.90
11152;DHT22;5630;49.342;10.802;2023-12-20T00:09:33;5.70;99.90
11152;DHT22;5630;49.342;10.802;2023-12-20T00:11:58;5.70;99.90
11152;DHT22;5630;49.342;10.802;2023-12-20T00:14:24;5.70;99.90
11152;DHT22;5630;49.342;10.802;2023-12-20T00:16:49;5.70;99.90
11152;DHT22;5630;49.342;10.802;2023-12-20T00:19:15;5.70;99.90
11152;DHT22;5630;49.342;10.802;2023-12-20T00:21:41;5.70;99.90
11152;DHT22;5630;49.342;10.802;2023-12-20T00:24:06;5.70;99.90
11152;DHT22;5630;49.342;10.802;2023-12-20T00:26:32;5.70;99.90
11152;DHT22;5630;49.342;10.802;2023-12-20T00:28:57;5.70;99.90
11152;DHT22;5630;49.342;10.802;2023-12-20T00:31:23;5.70;99.90
11152;DHT22;5630;49.342;10.802;2023-12-20T00:33:48;5.70;99.90
11152;DHT22;5630;49.342;10.802;2023-12-20T00:36:14;5.70;99.90
11152;DHT22;5630;49.342;10.802;2023-12-20T00:38:39;5.70;99.90
11152;DHT22;5630;49.342;10.802;2023-12-20T00:41:05;5.60;99.90
11152;DHT22;5630;49.342;10.802;2023-12-20T00:43:31;5.70;99.90
11152;DHT22;5630;49.342;10.802;2023-12-20T00:45:57;5.60;99.90
11152;DHT22;5630;49.342;10.802;2023-12-20T00:48:22;5.60;99.90
11152;DHT22;5630;49.342;10.802;2023-12-20T00:50:48;5.60;99.90
11152;DHT22;5630;49.342;10.802;2023-12-20T00:53:13;5.70;99.90
11152;DHT22;5630;49.342;10.802;2023-12-20T00:55:39;5.60;99.90
11152;DHT22;5630;49.342;10.802;2023-12-20T00:58:05;5.70;99.90
11152;DHT22;5630;49.342;10.802;2023-12-20T01:00:31;5.70;99.90
11152;DHT22;5630;49.342;10.802;2023-12-20T01:02:56;5.70;99.90
11152;DHT22;5630;49.342;10.802;2023-12-20T01:05:22;5.70;99.90
11152;DHT22;5630;49.342;10.802;2023-12-20T01:07:48;5.70;99.90
11152;DHT22;5630;49.342;10.802;2023-12-20T01:10:14;5.70;99.90
11152;DHT22;5630;49.342;10.802;2023-12-20T01:12:40;5.70;99.90
11152;DHT22;5630;49.342;10.802;2023-12-20T01:15:06;5.60;99.90
11152;DHT22;5630;49.342;10.802;2023-12-20T01:17:31;5.60;99.90
11152;DHT22;5630;49.342;10.802;2023-12-20T01:19:57;5.60;99.90
11152;DHT22;5630;49.342;10.802;2023-12-20T01:22:23;5.70;99.90
11152;DHT22;5630;49.342;10.802;2023-12-20T01:24:49;5.60;99.90
11152;DHT22;5630;49.342;10.802;2023-12-20T01:27:14;5.60;99.90
11152;DHT22;5630;49.342;10.802;2023-12-20T01:29:40;5.60;99.90
11152;DHT22;5630;49.342;10.802;2023-12-20T01:32:06;5.60;99.90
11152;DHT22;5630;49.342;10.802;2023-12-20T01:34:32;5.60;99.90
11152;DHT22;5630;49.342;10.802;2023-12-20T01:36:57;5.60;99.90
11152;DHT22;5630;49.342;10.802;2023-12-20T01:39:23;5.50;99.90
11152;DHT22;5630;49.342;10.802;2023-12-20T01:41:49;5.50;99.90
11152;DHT22;5630;49.342;10.802;2023-12-20T01:44:14;5.50;99.90
11152;DHT22;5630;49.342;10.802;2023-12-20T01:46:40;5.50;99.90
11152;DHT22;5630;49.342;10.802;2023-12-20T01:49:06;5.40;99.90
11152;DHT22;5630;49.342;10.802;2023-12-20T01:51:32;5.40;99.90
11152;DHT22;5630;49.342;10.802;2023-12-20T01:53:59;5.40;99.90
11152;DHT22;5630;49.342;10.802;2023-12-20T01:56:26;5.40;99.90
11152;DHT22;5630;49.342;10.802;2023-12-20T01:58:53;5.40;99.90
11152;DHT22;5630;49.342;10.802;2023-12-20T02:01:19;5.40;99.90
11152;DHT22;5630;49.342;10.802;2023-12-20T02:03:45;5.40;99.90
11152;DHT22;5630;49.342;10.802;2023-12-20T02:06:11;5.40;99.90
11152;DHT22;5630;49.342;10.802;2023-12-20T02:08:37;5.40;99.90
11152;DHT22;5630;49.342;10.802;2023-12-20T02:11:02;5.40;99.90
11152;DHT22;5630;49.342;10.802;2023-12-20T02:13:28;5.40;99.90
11152;DHT22;5630;49.342;10.802;2023-12-20T02:15:54;5.40;99.90
11152;DHT22;5630;49.342;10.802;2023-12-20T02:18:20;5.40;99.90
11152;DHT22;5630;49.342;10.802;2023-12-20T02:20:46;5.30;99.90
11152;DHT22;5630;49.342;10.802;2023-12-20T02:23:11;5.30;99.90
11152;DHT22;5630;49.342;10.802;2023-12-20T02:25:37;5.30;99.90
11152;DHT22;5630;49.342;10.802;2023-12-20T02:28:04;5.20;99.90
11152;DHT22;5630;49.342;10.802;2023-12-20T02:30:30;5.20;99.90
11152;DHT22;5630;49.342;10.802;2023-12-20T02:32:56;5.10;99.90
11152;DHT22;5630;49.342;10.802;2023-12-20T02:35:21;5.10;99.90
11152;DHT22;5630;49.342;10.802;2023-12-20T02:37:47;5.10;99.90
11152;DHT22;5630;49.342;10.802;2023-12-20T02:40:12;5.00;99.90
11152;DHT22;5630;49.342;10.802;2023-12-20T02:42:38;5.00;99.90
11152;DHT22;5630;49.342;10.802;2023-12-20T02:45:04;5.10;99.90
11152;DHT22;5630;49.342;10.802;2023-12-20T02:47:30;5.00;99.90
11152;DHT22;5630;49.342;10.802;2023-12-20T02:49:56;4.90;99.90
11152;DHT22;5630;49.342;10.802;2023-12-20T02:52:25;4.90;99.90
11152;DHT22;5630;49.342;10.802;2023-12-20T02:54:51;4.90;99.90
11152;DHT22;5630;49.342;10.802;2023-12-20T02:57:16;4.90;99.90
11152;DHT22;5630;49.342;10.802;2023-12-20T02:59:42;4.90;99.90
11152;DHT22;5630;49.342;10.802;2023-12-20T03:02:07;4.80;99.90
11152;DHT22;5630;49.342;10.802;2023-12-20T03:04:33;4.70;99.90
11152;DHT22;5630;49.342;10.802;2023-12-20T03:06:58;4.70;99.90
11152;DHT22;5630;49.342;10.802;2023-12-20T03:09:24;4.70;99.90
11152;DHT22;5630;49.342;10.802;2023-12-20T03:11:49;4.70;99.90
11152;DHT22;5630;49.342;10.802;2023-12-20T03:14:15;4.70;99.90
11152;DHT22;5630;49.342;10.802;2023-12-20T03:16:41;4.70;99.90
11152;DHT22;5630;49.342;10.802;2023-12-20T03:19:06;4.70;99.90
11152;DHT22;5630;49.342;10.802;2023-12-20T03:21:32;4.70;99.90
11152;DHT22;5630;49.342;10.802;2023-12-20T03:23:57;4.70;99.90
11152;DHT22;5630;49.342;10.802;2023-12-20T03:26:23;4.70;99.90
11152;DHT22;5630;49.342;10.802;2023-12-20T03:28:49;4.70;99.90
11152;DHT22;5630;49.342;10.802;2023-12-20T03:31:14;4.70;99.90
11152;DHT22;5630;49.342;10.802;2023-12-20T03:33:40;4.70;99.90
11152;DHT22;5630;49.342;10.802;2023-12-20T03:36:06;4.70;99.90
11152;DHT22;5630;49.342;10.802;2023-12-20T03:38:31;4.70;99.90
11152;DHT22;5630;49.342;10.802;2023-12-20T03:40:57;4.60;99.90
11152;DHT22;5630;49.342;10.802;2023-12-20T03:43:22;4.60;99.90
11152;DHT22;5630;49.342;10.802;2023-12-20T03:45:48;4.60;99.90
11152;DHT22;5630;49.342;10.802;2023-12-20T03:48:13;4.60;99.90
11152;DHT22;5630;49.342;10.802;2023-12-20T03:50:39;4.60;99.90
11152;DHT22;5630;49.342;10.802;2023-12-20T03:53:04;4.50;99.90
11152;DHT22;5630;49.342;10.802;2023-12-20T03:55:30;4.60;99.90
11152;DHT22;5630;49.342;10.802;2023-12-20T03:57:56;4.60;99.90
11152;DHT22;5630;49.342;10.802;2023-12-20T04:00:21;4.50;99.90
11152;DHT22;5630;49.342;10.802;2023-12-20T04:02:47;4.60;99.90
11152;DHT22;5630;49.342;10.802;2023-12-20T04:05:12;4.60;99.90
11152;DHT22;5630;49.342;10.802;2023-12-20T04:07:38;4.60;99.90
11152;DHT22;5630;49.342;10.802;2023-12-20T04:10:04;4.60;99.90
11152;DHT22;5630;49.342;10.802;2023-12-20T04:12:31;4.50;99.90
11152;DHT22;5630;49.342;10.802;2023-12-20T04:14:57;4.50;99.90
11152;DHT22;5630;49.342;10.802;2023-12-20T04:17:23;4.50;99.90
11152;DHT22;5630;49.342;10.802;2023-12-20T04:19:49;4.50;99.90
11152;DHT22;5630;49.342;10.802;2023-12-20T04:22:15;4.50;99.90
11152;DHT22;5630;49.342;10.802;2023-12-20T04:24:41;4.50;99.90
11152;DHT22;5630;49.342;10.802;2023-12-20T04:27:07;4.50;99.90
11152;DHT22;5630;49.342;10.802;2023-12-20T04:29:33;4.50;99.90
11152;DHT22;5630;49.342;10.802;2023-12-20T04:31:59;4.50;99.90
11152;DHT22;5630;49.342;10.802;2023-12-20T04:34:25;4.50;99.90
11152;DHT22;5630;49.342;10.802;2023-12-20T04:36:50;4.50;99.90
11152;DHT22;5630;49.342;10.802;2023-12-20T04:39:16;4.40;99.90
11152;DHT22;5630;49.342;10.802;2023-12-20T04:41:41;4.50;99.90
11152;DHT22;5630;49.342;10.802;2023-12-20T04:44:07;4.50;99.90
11152;DHT22;5630;49.342;10.802;2023-12-20T04:46:33;4.50;99.90
11152;DHT22;5630;49.342;10.802;2023-12-20T04:48:58;4.50;99.90
11152;DHT22;5630;49.342;10.802;2023-12-20T04:51:24;4.40;99.90
11152;DHT22;5630;49.342;10.802;2023-12-20T04:53:50;4.50;99.90
11152;DHT22;5630;49.342;10.802;2023-12-20T04:56:15;4.40;99.90
11152;DHT22;5630;49.342;10.802;2023-12-20T04:58:42;4.40;99.90
11152;DHT22;5630;49.342;10.802;2023-12-20T05:01:08;4.40;99.90
11152;DHT22;5630;49.342;10.802;2023-12-20T05:03:34;4.40;99.90
11152;DHT22;5630;49.342;10.802;2023-12-20T05:06:00;4.40;99.90
11152;DHT22;5630;49.342;10.802;2023-12-20T05:08:25;4.40;99.90
11152;DHT22;5630;49.342;10.802;2023-12-20T05:10:54;4.40;99.90
11152;DHT22;5630;49.342;10.802;2023-12-20T05:13:20;4.40;99.90
11152;DHT22;5630;49.342;10.802;2023-12-20T05:15:46;4.40;99.90
11152;DHT22;5630;49.342;10.802;2023-12-20T05:18:12;4.30;99.90
11152;DHT22;5630;49.342;10.802;2023-12-20T05:20:38;4.30;99.90
11152;DHT22;5630;49.342;10.802;2023-12-20T05:23:04;4.30;99.90
11152;DHT22;5630;49.342;10.802;2023-12-20T05:25:29;4.30;99.90
11152;DHT22;5630;49.342;10.802;2023-12-20T05:27:55;4.30;99.90
11152;DHT22;5630;49.342;10.802;2023-12-20T05:30:21;4.30;99.90
11152;DHT22;5630;49.342;10.802;2023-12-20T05:32:47;4.30;99.90
11152;DHT22;5630;49.342;10.802;2023-12-20T05:35:12;4.30;99.90
11152;DHT22;5630;49.342;10.802;2023-12-20T05:37:38;4.20;99.90
11152;DHT22;5630;49.342;10.802;2023-12-20T05:40:04;4.30;99.90
11152;DHT22;5630;49.342;10.802;2023-12-20T05:42:30;4.30;99.90
11152;DHT22;5630;49.342;10.802;2023-12-20T05:44:56;4.30;99.90
11152;DHT22;5630;49.342;10.802;2023-12-20T05:47:21;4.30;99.90
11152;DHT22;5630;49.342;10.802;2023-12-20T05:49:50;4.20;99.90
11152;DHT22;5630;49.342;10.802;2023-12-20T05:52:15;4.20;99.90
11152;DHT22;5630;49.342;10.802;2023-12-20T05:54:41;4.20;99.90
11152;DHT22;5630;49.342;10.802;2023-12-20T05:57:06;4.30;99.90
11152;DHT22;5630;49.342;10.802;2023-12-20T05:59:32;4.20;99.90
11152;DHT22;5630;49.342;10.802;2023-12-20T06:01:58;4.30;99.90
11152;DHT22;5630;49.342;10.802;2023-12-20T06:04:23;4.30;99.90
11152;DHT22;5630;49.342;10.802;2023-12-20T06:06:54;4.30;99.90
11152;DHT22;5630;49.342;10.802;2023-12-20T06:09:20;4.30;99.90
11152;DHT22;5630;49.342;10.802;2023-12-20T06:12:46;4.30;99.90
11152;DHT22;5630;49.342;10.802;2023-12-20T06:14:54;4.30;99.90
11152;DHT22;5630;49.342;10.802;2023-12-20T06:17:19;4.30;99.90
11152;DHT22;5630;49.342;10.802;2023-12-20T06:19:45;4.30;99.90
11152;DHT22;5630;49.342;10.802;2023-12-20T06:22:13;4.30;99.90
11152;DHT22;5630;49.342;10.802;2023-12-20T06:24:39;4.30;99.90
11152;DHT22;5630;49.342;10.802;2023-12-20T06:27:05;4.30;99.90
11152;DHT22;5630;49.342;10.802;2023-12-20T06:29:30;4.30;99.90
11152;DHT22;5630;49.342;10.802;2023-12-20T06:31:56;4.30;99.90
11152;DHT22;5630;49.342;10.802;2023-12-20T06:34:22;4.30;99.90
11152;DHT22;5630;49.342;10.802;2023-12-20T06:36:47;4.30;99.90
11152;DHT22;5630;49.342;10.802;2023-12-20T06:39:13;4.30;99.90
11152;DHT22;5630;49.342;10.802;2023-12-20T06:41:39;4.30;99.90
11152;DHT22;5630;49.342;10.802;2023-12-20T06:44:05;4.30;99.90
11152;DHT22;5630;49.342;10.802;2023-12-20T06:46:30;4.40;99.90
11152;DHT22;5630;49.342;10.802;2023-12-20T06:48:56;4.30;99.90
11152;DHT22;5630;49.342;10.802;2023-12-20T06:51:22;4.40;99.90
11152;DHT22;5630;49.342;10.802;2023-12-20T06:53:53;4.40;99.90
11152;DHT22;5630;49.342;10.802;2023-12-20T06:56:19;4.40;99.90
11152;DHT22;5630;49.342;10.802;2023-12-20T06:58:44;4.40;99.90
11152;DHT22;5630;49.342;10.802;2023-12-20T07:01:14;4.40;99.90
11152;DHT22;5630;49.342;10.802;2023-12-20T07:03:40;4.40;99.90
11152;DHT22;5630;49.342;10.802;2023-12-20T07:06:06;4.50;99.90
11152;DHT22;5630;49.342;10.802;2023-12-20T07:08:32;4.50;99.90
11152;DHT22;5630;49.342;10.802;2023-12-20T07:10:57;4.50;99.90
11152;DHT22;5630;49.342;10.802;2023-12-20T07:13:23;4.50;99.90
11152;DHT22;5630;49.342;10.802;2023-12-20T07:15:49;4.50;99.90
11152;DHT22;5630;49.342;10.802;2023-12-20T07:18:14;4.60;99.90
11152;DHT22;5630;49.342;10.802;2023-12-20T07:20:40;4.50;99.90
11152;DHT22;5630;49.342;10.802;2023-12-20T07:23:05;4.50;99.90
11152;DHT22;5630;49.342;10.802;2023-12-20T07:25:31;4.50;99.90
11152;DHT22;5630;49.342;10.802;2023-12-20T07:27:59;4.60;99.90
11152;DHT22;5630;49.342;10.802;2023-12-20T07:30:25;4.60;99.90
11152;DHT22;5630;49.342;10.802;2023-12-20T07:32:50;4.60;99.90
11152;DHT22;5630;49.342;10.802;2023-12-20T07:35:17;4.60;99.90
11152;DHT22;5630;49.342;10.802;2023-12-20T07:37:43;4.60;99.90
11152;DHT22;5630;49.342;10.802;2023-12-20T07:40:09;4.60;99.90
11152;DHT22;5630;49.342;10.802;2023-12-20T07:42:35;4.60;99.90
11152;DHT22;5630;49.342;10.802;2023-12-20T07:45:00;4.60;99.90
11152;DHT22;5630;49.342;10.802;2023-12-20T07:47:26;5.20;99.90
11152;DHT22;5630;49.342;10.802;2023-12-20T07:49:51;5.40;99.90
11152;DHT22;5630;49.342;10.802;2023-12-20T07:52:18;5.90;99.90
11152;DHT22;5630;49.342;10.802;2023-12-20T07:54:44;6.50;99.90
11152;DHT22;5630;49.342;10.802;2023-12-20T07:57:10;6.00;99.90
11152;DHT22;5630;49.342;10.802;2023-12-20T07:59:36;5.70;99.90
11152;DHT22;5630;49.342;10.802;2023-12-20T08:02:02;5.60;99.90
11152;DHT22;5630;49.342;10.802;2023-12-20T08:04:27;5.50;99.90
11152;DHT22;5630;49.342;10.802;2023-12-20T08:06:53;5.30;99.90
11152;DHT22;5630;49.342;10.802;2023-12-20T08:09:19;5.20;99.90
11152;DHT22;5630;49.342;10.802;2023-12-20T08:11:48;5.20;99.90
11152;DHT22;5630;49.342;10.802;2023-12-20T08:14:14;5.10;99.90
11152;DHT22;5630;49.342;10.802;2023-12-20T08:16:39;5.10;99.90
11152;DHT22;5630;49.342;10.802;2023-12-20T08:19:05;5.00;99.90
11152;DHT22;5630;49.342;10.802;2023-12-20T08:21:30;4.90;99.90
11152;DHT22;5630;49.342;10.802;2023-12-20T08:23:56;4.90;99.90
11152;DHT22;5630;49.342;10.802;2023-12-20T08:26:21;5.00;99.90
11152;DHT22;5630;49.342;10.802;2023-12-20T08:28:48;5.00;99.90
11152;DHT22;5630;49.342;10.802;2023-12-20T08:31:15;5.00;99.90
11152;DHT22;5630;49.342;10.802;2023-12-20T08:33:45;5.00;99.90
11152;DHT22;5630;49.342;10.802;2023-12-20T08:36:11;5.00;99.90
11152;DHT22;5630;49.342;10.802;2023-12-20T08:38:37;5.00;99.90
11152;DHT22;5630;49.342;10.802;2023-12-20T08:41:03;5.00;99.90
11152;DHT22;5630;49.342;10.802;2023-12-20T08:43:31;5.10;99.90
11152;DHT22;5630;49.342;10.802;2023-12-20T08:45:56;5.00;99.90
11152;DHT22;5630;49.342;10.802;2023-12-20T08:48:22;5.10;99.90
11152;DHT22;5630;49.342;10.802;2023-12-20T08:50:48;5.10;99.90
11152;DHT22;5630;49.342;10.802;2023-12-20T08:53:15;5.10;99.90
11152;DHT22;5630;49.342;10.802;2023-12-20T08:55:42;5.00;99.90
11152;DHT22;5630;49.342;10.802;2023-12-20T08:58:07;4.90;99.90
11152;DHT22;5630;49.342;10.802;2023-12-20T09:00:34;4.90;99.90
11152;DHT22;5630;49.342;10.802;2023-12-20T09:02:59;5.00;99.90
11152;DHT22;5630;49.342;10.802;2023-12-20T09:05:25;5.00;99.90
11152;DHT22;5630;49.342;10.802;2023-12-20T09:07:51;4.90;99.90
11152;DHT22;5630;49.342;10.802;2023-12-20T09:10:16;5.00;99.90
11152;DHT22;5630;49.342;10.802;2023-12-20T09:12:50;5.00;99.90
11152;DHT22;5630;49.342;10.802;2023-12-20T09:15:16;5.10;99.90
11152;DHT22;5630;49.342;10.802;2023-12-20T09:17:42;5.00;99.90
11152;DHT22;5630;49.342;10.802;2023-12-20T09:20:09;5.60;99.90
11152;DHT22;5630;49.342;10.802;2023-12-20T09:22:35;6.30;99.90
11152;DHT22;5630;49.342;10.802;2023-12-20T09:25:00;6.30;99.90
11152;DHT22;5630;49.342;10.802;2023-12-20T09:27:27;6.30;99.90
11152;DHT22;5630;49.342;10.802;2023-12-20T09:29:53;6.70;99.90
11152;DHT22;5630;49.342;10.802;2023-12-20T09:32:19;6.50;99.90
11152;DHT22;5630;49.342;10.802;2023-12-20T09:34:46;6.10;99.90
11152;DHT22;5630;49.342;10.802;2023-12-20T09:37:13;6.00;99.90
11152;DHT22;5630;49.342;10.802;2023-12-20T09:39:38;5.90;99.90
11152;DHT22;5630;49.342;10.802;2023-12-20T09:42:05;5.90;99.90
11152;DHT22;5630;49.342;10.802;2023-12-20T09:44:32;5.80;99.90
11152;DHT22;5630;49.342;10.802;2023-12-20T09:47:02;5.80;99.90
11152;DHT22;5630;49.342;10.802;2023-12-20T09:49:29;5.60;99.90
11152;DHT22;5630;49.342;10.802;2023-12-20T09:51:56;5.70;99.90
11152;DHT22;5630;49.342;10.802;2023-12-20T09:54:22;5.80;99.90
11152;DHT22;5630;49.342;10.802;2023-12-20T09:56:48;5.70;99.90
11152;DHT22;5630;49.342;10.802;2023-12-20T09:59:14;5.70;99.90
11152;DHT22;5630;49.342;10.802;2023-12-20T10:01:40;5.80;99.90
11152;DHT22;5630;49.342;10.802;2023-12-20T10:04:08;5.90;99.90
11152;DHT22;5630;49.342;10.802;2023-12-20T10:06:44;5.80;99.90
11152;DHT22;5630;49.342;10.802;2023-12-20T10:09:11;6.10;99.90
11152;DHT22;5630;49.342;10.802;2023-12-20T10:11:40;6.20;99.90
11152;DHT22;5630;49.342;10.802;2023-12-20T10:14:10;6.10;99.90
11152;DHT22;5630;49.342;10.802;2023-12-20T10:16:36;6.10;99.90
11152;DHT22;5630;49.342;10.802;2023-12-20T10:19:01;6.10;99.90
11152;DHT22;5630;49.342;10.802;2023-12-20T10:21:27;6.10;99.90
11152;DHT22;5630;49.342;10.802;2023-12-20T10:23:56;6.10;99.90
11152;DHT22;5630;49.342;10.802;2023-12-20T10:26:26;6.10;99.90
11152;DHT22;5630;49.342;10.802;2023-12-20T10:28:56;6.10;99.90
11152;DHT22;5630;49.342;10.802;2023-12-20T10:31:28;6.20;99.90
11152;DHT22;5630;49.342;10.802;2023-12-20T10:33:56;6.10;99.90
11152;DHT22;5630;49.342;10.802;2023-12-20T10:36:23;6.00;99.90
11152;DHT22;5630;49.342;10.802;2023-12-20T10:38:50;6.10;99.90
11152;DHT22;5630;49.342;10.802;2023-12-20T10:41:24;6.00;99.90
11152;DHT22;5630;49.342;10.802;2023-12-20T10:43:51;6.00;99.90
11152;DHT22;5630;49.342;10.802;2023-12-20T10:46:18;6.00;99.90
11152;DHT22;5630;49.342;10.802;2023-12-20T10:48:45;5.80;99.90
11152;DHT22;5630;49.342;10.802;2023-12-20T10:51:13;5.80;99.90
11152;DHT22;5630;49.342;10.802;2023-12-20T10:53:40;5.80;99.90
11152;DHT22;5630;49.342;10.802;2023-12-20T10:56:08;5.80;99.90
11152;DHT22;5630;49.342;10.802;2023-12-20T10:58:36;5.60;99.90
11152;DHT22;5630;49.342;10.802;2023-12-20T11:01:04;5.60;99.90
11152;DHT22;5630;49.342;10.802;2023-12-20T11:03:35;5.60;99.90
11152;DHT22;5630;49.342;10.802;2023-12-20T11:06:27;5.70;99.90
11152;DHT22;5630;49.342;10.802;2023-12-20T11:09:03;5.60;99.90
11152;DHT22;5630;49.342;10.802;2023-12-20T11:11:45;5.70;99.90
11152;DHT22;5630;49.342;10.802;2023-12-20T11:14:19;5.80;99.90
11152;DHT22;5630;49.342;10.802;2023-12-20T11:16:45;5.80;99.90
11152;DHT22;5630;49.342;10.802;2023-12-20T11:19:11;5.80;99.90
11152;DHT22;5630;49.342;10.802;2023-12-20T11:21:40;5.80;99.90
11152;DHT22;5630;49.342;10.802;2023-12-20T11:24:06;5.80;99.90
11152;DHT22;5630;49.342;10.802;2023-12-20T11:26:31;5.90;99.90
11152;DHT22;5630;49.342;10.802;2023-12-20T11:29:49;5.90;99.90
11152;DHT22;5630;49.342;10.802;2023-12-20T11:34:56;5.90;99.90
11152;DHT22;5630;49.342;10.802;2023-12-20T11:37:22;5.80;99.90
11152;DHT22;5630;49.342;10.802;2023-12-20T11:40:01;5.80;99.90
11152;DHT22;5630;49.342;10.802;2023-12-20T11:42:27;5.80;99.90
11152;DHT22;5630;49.342;10.802;2023-12-20T11:44:53;5.70;99.90
11152;DHT22;5630;49.342;10.802;2023-12-20T11:47:19;5.60;99.90
11152;DHT22;5630;49.342;10.802;2023-12-20T11:49:47;5.60;99.90
11152;DHT22;5630;49.342;10.802;2023-12-20T11:52:14;5.50;99.90
11152;DHT22;5630;49.342;10.802;2023-12-20T11:54:39;5.60;99.90
11152;DHT22;5630;49.342;10.802;2023-12-20T11:57:05;5.50;99.90
11152;DHT22;5630;49.342;10.802;2023-12-20T11:59:31;5.60;99.90
11152;DHT22;5630;49.342;10.802;2023-12-20T12:01:56;5.60;99.90
11152;DHT22;5630;49.342;10.802;2023-12-20T12:04:29;5.60;99.90
11152;DHT22;5630;49.342;10.802;2023-12-20T12:06:54;5.50;99.90
11152;DHT22;5630;49.342;10.802;2023-12-20T12:09:20;5.50;99.90
11152;DHT22;5630;49.342;10.802;2023-12-20T12:11:45;5.60;99.90
11152;DHT22;5630;49.342;10.802;2023-12-20T12:14:11;5.60;99.90
11152;DHT22;5630;49.342;10.802;2023-12-20T12:16:37;5.50;99.90
11152;DHT22;5630;49.342;10.802;2023-12-20T12:19:03;5.60;99.90
11152;DHT22;5630;49.342;10.802;2023-12-20T12:21:29;5.50;99.90
11152;DHT22;5630;49.342;10.802;2023-12-20T12:24:09;5.50;99.90
11152;DHT22;5630;49.342;10.802;2023-12-20T12:26:35;5.50;99.90
11152;DHT22;5630;49.342;10.802;2023-12-20T12:29:00;5.50;99.90
11152;DHT22;5630;49.342;10.802;2023-12-20T12:31:26;5.50;99.90
11152;DHT22;5630;49.342;10.802;2023-12-20T12:33:52;5.60;99.90
11152;DHT22;5630;49.342;10.802;2023-12-20T12:36:17;5.60;99.90
11152;DHT22;5630;49.342;10.802;2023-12-20T12:38:43;5.50;99.90
11152;DHT22;5630;49.342;10.802;2023-12-20T12:41:10;5.50;99.90
11152;DHT22;5630;49.342;10.802;2023-12-20T12:43:37;5.50;99.90
11152;DHT22;5630;49.342;10.802;2023-12-20T12:46:03;5.50;99.90
11152;DHT22;5630;49.342;10.802;2023-12-20T12:48:29;5.40;99.90
11152;DHT22;5630;49.342;10.802;2023-12-20T12:50:54;5.40;99.90
11152;DHT22;5630;49.342;10.802;2023-12-20T12:53:24;5.30;99.90
11152;DHT22;5630;49.342;10.802;2023-12-20T12:55:51;5.30;99.90
11152;DHT22;5630;49.342;10.802;2023-12-20T12:58:16;5.20;99.90
11152;DHT22;5630;49.342;10.802;2023-12-20T13:00:42;5.10;99.90
11152;DHT22;5630;49.342;10.802;2023-12-20T13:03:07;5.10;99.90
11152;DHT22;5630;49.342;10.802;2023-12-20T13:05:33;5.10;99.90
11152;DHT22;5630;49.342;10.802;2023-12-20T13:07:59;5.10;99.90
11152;DHT22;5630;49.342;10.802;2023-12-20T13:10:25;5.20;99.90
11152;DHT22;5630;49.342;10.802;2023-12-20T13:12:50;5.20;99.90
11152;DHT22;5630;49.342;10.802;2023-12-20T13:15:16;5.20;99.90
11152;DHT22;5630;49.342;10.802;2023-12-20T13:17:42;5.20;99.90
11152;DHT22;5630;49.342;10.802;2023-12-20T13:20:07;5.10;99.90
11152;DHT22;5630;49.342;10.802;2023-12-20T13:22:33;5.20;99.90
11152;DHT22;5630;49.342;10.802;2023-12-20T13:24:58;5.20;99.90
11152;DHT22;5630;49.342;10.802;2023-12-20T13:27:24;5.20;99.90
11152;DHT22;5630;49.342;10.802;2023-12-20T13:29:49;5.20;99.90
11152;DHT22;5630;49.342;10.802;2023-12-20T13:32:15;5.30;99.90
11152;DHT22;5630;49.342;10.802;2023-12-20T13:34:41;5.30;99.90
11152;DHT22;5630;49.342;10.802;2023-12-20T13:37:06;5.30;99.90
11152;DHT22;5630;49.342;10.802;2023-12-20T13:39:32;5.30;99.90
11152;DHT22;5630;49.342;10.802;2023-12-20T13:41:58;5.40;99.90
11152;DHT22;5630;49.342;10.802;2023-12-20T13:44:23;5.30;99.90
11152;DHT22;5630;49.342;10.802;2023-12-20T13:46:50;5.30;99.90
11152;DHT22;5630;49.342;10.802;2023-12-20T13:49:15;5.30;99.90
11152;DHT22;5630;49.342;10.802;2023-12-20T13:51:41;5.40;99.90
11152;DHT22;5630;49.342;10.802;2023-12-20T13:54:06;5.40;99.90
11152;DHT22;5630;49.342;10.802;2023-12-20T13:56:32;5.40;99.90
11152;DHT22;5630;49.342;10.802;2023-12-20T13:58:58;5.50;99.90
11152;DHT22;5630;49.342;10.802;2023-12-20T14:01:25;5.50;99.90
11152;DHT22;5630;49.342;10.802;2023-12-20T14:03:51;5.40;99.90
11152;DHT22;5630;49.342;10.802;2023-12-20T14:06:17;5.20;99.90
11152;DHT22;5630;49.342;10.802;2023-12-20T14:08:43;5.30;99.90
11152;DHT22;5630;49.342;10.802;2023-12-20T14:11:09;5.20;99.90
11152;DHT22;5630;49.342;10.802;2023-12-20T14:13:35;5.20;99.90
11152;DHT22;5630;49.342;10.802;2023-12-20T14:16:00;5.10;99.90
11152;DHT22;5630;49.342;10.802;2023-12-20T14:18:27;5.00;99.90
11152;DHT22;5630;49.342;10.802;2023-12-20T14:20:53;5.10;99.90
11152;DHT22;5630;49.342;10.802;2023-12-20T14:23:19;5.10;99.90
11152;DHT22;5630;49.342;10.802;2023-12-20T14:25:45;5.00;99.90
11152;DHT22;5630;49.342;10.802;2023-12-20T14:28:10;5.10;99.90
11152;DHT22;5630;49.342;10.802;2023-12-20T14:30:39;5.00;99.90
11152;DHT22;5630;49.342;10.802;2023-12-20T14:33:05;4.90;99.90
11152;DHT22;5630;49.342;10.802;2023-12-20T14:35:30;4.90;99.90
11152;DHT22;5630;49.342;10.802;2023-12-20T14:37:56;4.90;99.90
11152;DHT22;5630;49.342;10.802;2023-12-20T14:40:22;4.90;99.90
11152;DHT22;5630;49.342;10.802;2023-12-20T14:42:48;4.90;99.90
11152;DHT22;5630;49.342;10.802;2023-12-20T14:45:14;4.90;99.90
11152;DHT22;5630;49.342;10.802;2023-12-20T14:47:41;4.80;99.90
11152;DHT22;5630;49.342;10.802;2023-12-20T14:50:07;4.70;99.90
11152;DHT22;5630;49.342;10.802;2023-12-20T14:52:33;4.70;99.90
11152;DHT22;5630;49.342;10.802;2023-12-20T14:55:00;4.70;99.90
11152;DHT22;5630;49.342;10.802;2023-12-20T14:57:26;4.70;99.90
11152;DHT22;5630;49.342;10.802;2023-12-20T14:59:52;4.60;99.90
11152;DHT22;5630;49.342;10.802;2023-12-20T15:02:17;4.60;99.90
11152;DHT22;5630;49.342;10.802;2023-12-20T15:04:43;4.60;99.90
11152;DHT22;5630;49.342;10.802;2023-12-20T15:07:09;4.60;99.90
11152;DHT22;5630;49.342;10.802;2023-12-20T15:09:34;4.50;99.90
11152;DHT22;5630;49.342;10.802;2023-12-20T15:12:00;4.50;99.90
11152;DHT22;5630;49.342;10.802;2023-12-20T15:14:26;4.50;99.90
11152;DHT22;5630;49.342;10.802;2023-12-20T15:16:52;4.50;99.90
11152;DHT22;5630;49.342;10.802;2023-12-20T15:19:18;4.50;99.90
11152;DHT22;5630;49.342;10.802;2023-12-20T15:21:43;4.50;99.90
11152;DHT22;5630;49.342;10.802;2023-12-20T15:24:09;4.50;99.90
11152;DHT22;5630;49.342;10.802;2023-12-20T15:26:40;4.30;99.90
11152;DHT22;5630;49.342;10.802;2023-12-20T15:29:07;4.30;99.90
11152;DHT22;5630;49.342;10.802;2023-12-20T15:31:32;4.40;99.90
11152;DHT22;5630;49.342;10.802;2023-12-20T15:33:59;4.40;99.90
11152;DHT22;5630;49.342;10.802;2023-12-20T15:36:24;5.00;99.90
11152;DHT22;5630;49.342;10.802;2023-12-20T15:38:51;5.00;99.90
11152;DHT22;5630;49.342;10.802;2023-12-20T15:41:21;4.80;99.90
11152;DHT22;5630;49.342;10.802;2023-12-20T15:43:46;4.70;99.90